sensor_id;sensor_type;location;lat;lon;timestamp;P1;durP1;ratioP1;P2;durP2;ratioP2
52208;SDS011;38507;53.132;6.394;2023-07-13T00:02:14;11.73;;;2.60;;
52208;SDS011;38507;53.132;6.394;2023-07-13T00:04:40;10.73;;;2.67;;
52208;SDS011;38507;53.132;6.394;2023-07-13T00:07:06;12.18;;;2.58;;
52208;SDS011;38507;53.132;6.394;2023-07-13T00:09:32;14.30;;;2.92;;
52208;SDS011;38507;53.132;6.394;2023-07-13T00:11:58;13.77;;;3.03;;
52208;SDS011;38507;53.132;6.394;2023-07-13T00:14:24;10.25;;;2.67;;
52208;SDS011;38507;53.132;6.394;2023-07-13T00:16:51;15.45;;;2.60;;
52208;SDS011;38507;53.132;6.394;2023-07-13T00:19:17;14.57;;;3.03;;
52208;SDS011;38507;53.132;6.394;2023-07-13T00:21:43;13.77;;;2.90;;
52208;SDS011;38507;53.132;6.394;2023-07-13T00:24:10;11.35;;;3.03;;
52208;SDS011;38507;53.132;6.394;2023-07-13T00:26:38;12.98;;;3.33;;
52208;SDS011;38507;53.132;6.394;2023-07-13T00:29:04;14.15;;;3.00;;
52208;SDS011;38507;53.132;6.394;2023-07-13T00:31:34;10.80;;;2.67;;
52208;SDS011;38507;53.132;6.394;2023-07-13T00:34:00;10.88;;;2.70;;
52208;SDS011;38507;53.132;6.394;2023-07-13T00:36:26;11.57;;;2.97;;
52208;SDS011;38507;53.132;6.394;2023-07-13T00:38:52;12.98;;;3.60;;
52208;SDS011;38507;53.132;6.394;2023-07-13T00:41:18;22.40;;;3.80;;
52208;SDS011;38507;53.132;6.394;2023-07-13T00:43:44;16.15;;;4.05;;
52208;SDS011;38507;53.132;6.394;2023-07-13T00:46:18;13.38;;;3.10;;
52208;SDS011;38507;53.132;6.394;2023-07-13T00:48:47;14.18;;;2.90;;
52208;SDS011;38507;53.132;6.394;2023-07-13T00:51:15;12.88;;;3.33;;
52208;SDS011;38507;53.132;6.394;2023-07-13T00:53:45;11.68;;;3.30;;
52208;SDS011;38507;53.132;6.394;2023-07-13T00:56:11;14.07;;;3.15;;
52208;SDS011;38507;53.132;6.394;2023-07-13T00:58:37;13.95;;;3.35;;
52208;SDS011;38507;53.132;6.394;2023-07-13T01:01:03;9.35;;;2.80;;
52208;SDS011;38507;53.132;6.394;2023-07-13T01:03:29;15.85;;;3.13;;
52208;SDS011;38507;53.132;6.394;2023-07-13T01:05:54;17.33;;;3.30;;
52208;SDS011;38507;53.132;6.394;2023-07-13T01:08:21;14.55;;;3.83;;
52208;SDS011;38507;53.132;6.394;2023-07-13T01:10:56;13.95;;;3.40;;
52208;SDS011;38507;53.132;6.394;2023-07-13T01:13:24;17.15;;;3.17;;
52208;SDS011;38507;53.132;6.394;2023-07-13T01:15:50;18.67;;;3.88;;
52208;SDS011;38507;53.132;6.394;2023-07-13T01:18:18;12.70;;;3.22;;
52208;SDS011;38507;53.132;6.394;2023-07-13T01:20:53;13.80;;;3.65;;
52208;SDS011;38507;53.132;6.394;2023-07-13T01:23:26;10.35;;;3.08;;
52208;SDS011;38507;53.132;6.394;2023-07-13T01:25:53;14.25;;;3.30;;
52208;SDS011;38507;53.132;6.394;2023-07-13T01:28:20;12.15;;;3.22;;
52208;SDS011;38507;53.132;6.394;2023-07-13T01:30:46;13.30;;;3.65;;
52208;SDS011;38507;53.132;6.394;2023-07-13T01:33:16;15.82;;;3.58;;
52208;SDS011;38507;53.132;6.394;2023-07-13T01:35:43;15.07;;;3.70;;
52208;SDS011;38507;53.132;6.394;2023-07-13T01:38:11;15.27;;;3.75;;
52208;SDS011;38507;53.132;6.394;2023-07-13T01:40:39;17.90;;;3.75;;
52208;SDS011;38507;53.132;6.394;2023-07-13T01:43:05;15.65;;;3.35;;
52208;SDS011;38507;53.132;6.394;2023-07-13T01:45:31;17.90;;;3.25;;
52208;SDS011;38507;53.132;6.394;2023-07-13T01:47:57;13.27;;;3.45;;
52208;SDS011;38507;53.132;6.394;2023-07-13T01:50:23;14.00;;;3.88;;
52208;SDS011;38507;53.132;6.394;2023-07-13T01:52:49;14.48;;;3.30;;
52208;SDS011;38507;53.132;6.394;2023-07-13T01:55:15;12.70;;;3.53;;
52208;SDS011;38507;53.132;6.394;2023-07-13T01:57:40;16.85;;;3.63;;
52208;SDS011;38507;53.132;6.394;2023-07-13T02:00:06;10.52;;;3.00;;
52208;SDS011;38507;53.132;6.394;2023-07-13T02:02:34;13.40;;;3.25;;
52208;SDS011;38507;53.132;6.394;2023-07-13T02:04:59;12.52;;;3.05;;
52208;SDS011;38507;53.132;6.394;2023-07-13T02:07:25;14.93;;;3.10;;
52208;SDS011;38507;53.132;6.394;2023-07-13T02:09:51;6.97;;;2.67;;
52208;SDS011;38507;53.132;6.394;2023-07-13T02:12:16;10.18;;;2.60;;
52208;SDS011;38507;53.132;6.394;2023-07-13T02:14:42;11.10;;;2.70;;
52208;SDS011;38507;53.132;6.394;2023-07-13T02:17:09;13.15;;;2.85;;
52208;SDS011;38507;53.132;6.394;2023-07-13T02:19:34;12.55;;;2.78;;
52208;SDS011;38507;53.132;6.394;2023-07-13T02:22:01;13.75;;;3.25;;
52208;SDS011;38507;53.132;6.394;2023-07-13T02:24:27;13.48;;;3.25;;
52208;SDS011;38507;53.132;6.394;2023-07-13T02:26:52;16.08;;;3.70;;
52208;SDS011;38507;53.132;6.394;2023-07-13T02:29:18;11.68;;;3.28;;
52208;SDS011;38507;53.132;6.394;2023-07-13T02:31:44;12.88;;;3.42;;
52208;SDS011;38507;53.132;6.394;2023-07-13T02:34:09;11.02;;;2.85;;
52208;SDS011;38507;53.132;6.394;2023-07-13T02:36:35;10.05;;;2.88;;
52208;SDS011;38507;53.132;6.394;2023-07-13T02:39:01;13.55;;;3.38;;
52208;SDS011;38507;53.132;6.394;2023-07-13T02:41:28;21.23;;;3.70;;
52208;SDS011;38507;53.132;6.394;2023-07-13T02:43:54;13.63;;;3.28;;
52208;SDS011;38507;53.132;6.394;2023-07-13T02:46:28;13.02;;;3.33;;
52208;SDS011;38507;53.132;6.394;2023-07-13T02:48:54;12.15;;;3.03;;
52208;SDS011;38507;53.132;6.394;2023-07-13T02:51:20;16.33;;;3.15;;
52208;SDS011;38507;53.132;6.394;2023-07-13T02:53:45;14.07;;;3.40;;
52208;SDS011;38507;53.132;6.394;2023-07-13T02:56:11;17.67;;;4.38;;
52208;SDS011;38507;53.132;6.394;2023-07-13T02:58:37;11.52;;;3.85;;
52208;SDS011;38507;53.132;6.394;2023-07-13T03:01:10;14.77;;;3.47;;
52208;SDS011;38507;53.132;6.394;2023-07-13T03:03:36;13.30;;;3.58;;
52208;SDS011;38507;53.132;6.394;2023-07-13T03:06:03;17.00;;;3.83;;
52208;SDS011;38507;53.132;6.394;2023-07-13T03:08:31;18.20;;;4.75;;
52208;SDS011;38507;53.132;6.394;2023-07-13T03:11:00;16.10;;;3.67;;
52208;SDS011;38507;53.132;6.394;2023-07-13T03:13:27;13.18;;;3.72;;
52208;SDS011;38507;53.132;6.394;2023-07-13T03:15:53;17.50;;;4.28;;
52208;SDS011;38507;53.132;6.394;2023-07-13T03:18:18;12.75;;;3.63;;
52208;SDS011;38507;53.132;6.394;2023-07-13T03:20:44;12.73;;;3.35;;
52208;SDS011;38507;53.132;6.394;2023-07-13T03:23:10;16.75;;;4.32;;
52208;SDS011;38507;53.132;6.394;2023-07-13T03:25:35;15.65;;;4.07;;
52208;SDS011;38507;53.132;6.394;2023-07-13T03:28:01;17.83;;;4.50;;
52208;SDS011;38507;53.132;6.394;2023-07-13T03:30:27;12.50;;;3.53;;
52208;SDS011;38507;53.132;6.394;2023-07-13T03:32:52;15.88;;;3.72;;
52208;SDS011;38507;53.132;6.394;2023-07-13T03:35:18;13.63;;;3.83;;
52208;SDS011;38507;53.132;6.394;2023-07-13T03:37:44;15.02;;;4.43;;
52208;SDS011;38507;53.132;6.394;2023-07-13T03:40:10;13.43;;;3.70;;
52208;SDS011;38507;53.132;6.394;2023-07-13T03:42:36;14.98;;;3.25;;
52208;SDS011;38507;53.132;6.394;2023-07-13T03:45:02;13.60;;;3.40;;
52208;SDS011;38507;53.132;6.394;2023-07-13T03:47:28;22.42;;;3.58;;
52208;SDS011;38507;53.132;6.394;2023-07-13T03:49:53;16.33;;;4.03;;
52208;SDS011;38507;53.132;6.394;2023-07-13T03:52:19;17.50;;;3.92;;
52208;SDS011;38507;53.132;6.394;2023-07-13T03:54:45;11.45;;;3.05;;
52208;SDS011;38507;53.132;6.394;2023-07-13T03:57:11;17.85;;;3.50;;
52208;SDS011;38507;53.132;6.394;2023-07-13T03:59:36;19.10;;;3.80;;
52208;SDS011;38507;53.132;6.394;2023-07-13T04:02:02;16.88;;;3.75;;
52208;SDS011;38507;53.132;6.394;2023-07-13T04:04:29;14.55;;;3.70;;
52208;SDS011;38507;53.132;6.394;2023-07-13T04:06:55;11.43;;;3.20;;
52208;SDS011;38507;53.132;6.394;2023-07-13T04:09:24;13.95;;;3.80;;
52208;SDS011;38507;53.132;6.394;2023-07-13T04:11:50;16.52;;;3.55;;
52208;SDS011;38507;53.132;6.394;2023-07-13T04:14:16;18.67;;;4.60;;
52208;SDS011;38507;53.132;6.394;2023-07-13T04:16:42;22.75;;;5.45;;
52208;SDS011;38507;53.132;6.394;2023-07-13T04:19:09;18.13;;;4.40;;
52208;SDS011;38507;53.132;6.394;2023-07-13T04:21:35;14.65;;;3.17;;
52208;SDS011;38507;53.132;6.394;2023-07-13T04:24:02;19.80;;;4.45;;
52208;SDS011;38507;53.132;6.394;2023-07-13T04:26:29;12.43;;;3.85;;
52208;SDS011;38507;53.132;6.394;2023-07-13T04:28:55;17.35;;;3.97;;
52208;SDS011;38507;53.132;6.394;2023-07-13T04:31:22;22.75;;;5.13;;
52208;SDS011;38507;53.132;6.394;2023-07-13T04:33:48;16.30;;;4.03;;
52208;SDS011;38507;53.132;6.394;2023-07-13T04:36:15;16.52;;;4.07;;
52208;SDS011;38507;53.132;6.394;2023-07-13T04:38:41;10.38;;;3.45;;
52208;SDS011;38507;53.132;6.394;2023-07-13T04:41:08;18.20;;;4.30;;
52208;SDS011;38507;53.132;6.394;2023-07-13T04:43:34;17.95;;;3.90;;
52208;SDS011;38507;53.132;6.394;2023-07-13T04:46:04;13.98;;;4.25;;
52208;SDS011;38507;53.132;6.394;2023-07-13T04:48:31;17.70;;;4.25;;
52208;SDS011;38507;53.132;6.394;2023-07-13T04:50:57;18.52;;;4.10;;
52208;SDS011;38507;53.132;6.394;2023-07-13T04:53:24;15.13;;;4.55;;
52208;SDS011;38507;53.132;6.394;2023-07-13T04:55:50;17.20;;;4.63;;
52208;SDS011;38507;53.132;6.394;2023-07-13T04:58:16;19.48;;;4.45;;
52208;SDS011;38507;53.132;6.394;2023-07-13T05:00:42;20.67;;;3.95;;
52208;SDS011;38507;53.132;6.394;2023-07-13T05:03:08;19.48;;;4.40;;
52208;SDS011;38507;53.132;6.394;2023-07-13T05:05:33;18.45;;;3.88;;
52208;SDS011;38507;53.132;6.394;2023-07-13T05:07:59;19.30;;;3.80;;
52208;SDS011;38507;53.132;6.394;2023-07-13T05:10:25;17.00;;;3.97;;
52208;SDS011;38507;53.132;6.394;2023-07-13T05:12:51;16.58;;;3.90;;
52208;SDS011;38507;53.132;6.394;2023-07-13T05:15:17;16.80;;;4.05;;
52208;SDS011;38507;53.132;6.394;2023-07-13T05:17:47;17.73;;;4.10;;
52208;SDS011;38507;53.132;6.394;2023-07-13T05:20:13;16.52;;;3.88;;
52208;SDS011;38507;53.132;6.394;2023-07-13T05:22:40;16.67;;;4.57;;
52208;SDS011;38507;53.132;6.394;2023-07-13T05:25:06;14.70;;;4.20;;
52208;SDS011;38507;53.132;6.394;2023-07-13T05:27:33;17.70;;;4.18;;
52208;SDS011;38507;53.132;6.394;2023-07-13T05:29:59;18.85;;;4.15;;
52208;SDS011;38507;53.132;6.394;2023-07-13T05:32:25;18.63;;;3.83;;
52208;SDS011;38507;53.132;6.394;2023-07-13T05:34:51;13.73;;;3.83;;
52208;SDS011;38507;53.132;6.394;2023-07-13T05:37:17;16.85;;;3.72;;
52208;SDS011;38507;53.132;6.394;2023-07-13T05:39:43;16.67;;;4.28;;
52208;SDS011;38507;53.132;6.394;2023-07-13T05:42:08;14.68;;;4.18;;
52208;SDS011;38507;53.132;6.394;2023-07-13T05:44:34;11.98;;;3.15;;
52208;SDS011;38507;53.132;6.394;2023-07-13T05:47:00;11.95;;;3.25;;
52208;SDS011;38507;53.132;6.394;2023-07-13T05:49:25;15.73;;;3.42;;
52208;SDS011;38507;53.132;6.394;2023-07-13T05:51:51;17.42;;;3.97;;
52208;SDS011;38507;53.132;6.394;2023-07-13T05:54:17;12.68;;;3.63;;
52208;SDS011;38507;53.132;6.394;2023-07-13T05:56:42;13.98;;;2.97;;
52208;SDS011;38507;53.132;6.394;2023-07-13T05:59:08;15.63;;;3.30;;
52208;SDS011;38507;53.132;6.394;2023-07-13T06:01:34;15.55;;;3.75;;
52208;SDS011;38507;53.132;6.394;2023-07-13T06:03:59;25.90;;;5.10;;
52208;SDS011;38507;53.132;6.394;2023-07-13T06:06:25;15.95;;;3.38;;
52208;SDS011;38507;53.132;6.394;2023-07-13T06:08:51;15.77;;;3.10;;
52208;SDS011;38507;53.132;6.394;2023-07-13T06:11:21;15.30;;;3.10;;
52208;SDS011;38507;53.132;6.394;2023-07-13T06:13:48;11.15;;;2.85;;
52208;SDS011;38507;53.132;6.394;2023-07-13T06:16:14;14.07;;;2.85;;
52208;SDS011;38507;53.132;6.394;2023-07-13T06:18:40;14.90;;;4.25;;
52208;SDS011;38507;53.132;6.394;2023-07-13T06:21:07;11.93;;;2.53;;
52208;SDS011;38507;53.132;6.394;2023-07-13T06:23:38;11.55;;;2.50;;
52208;SDS011;38507;53.132;6.394;2023-07-13T06:26:04;8.27;;;2.75;;
52208;SDS011;38507;53.132;6.394;2023-07-13T06:28:30;14.82;;;3.47;;
52208;SDS011;38507;53.132;6.394;2023-07-13T06:30:57;9.85;;;2.83;;
52208;SDS011;38507;53.132;6.394;2023-07-13T06:33:23;10.85;;;2.55;;
52208;SDS011;38507;53.132;6.394;2023-07-13T06:35:48;11.73;;;2.95;;
52208;SDS011;38507;53.132;6.394;2023-07-13T06:38:14;11.70;;;2.53;;
52208;SDS011;38507;53.132;6.394;2023-07-13T06:40:40;8.15;;;2.35;;
52208;SDS011;38507;53.132;6.394;2023-07-13T06:43:06;10.23;;;2.50;;
52208;SDS011;38507;53.132;6.394;2023-07-13T06:45:32;10.57;;;3.15;;
52208;SDS011;38507;53.132;6.394;2023-07-13T06:48:05;10.60;;;2.97;;
52208;SDS011;38507;53.132;6.394;2023-07-13T06:50:31;12.18;;;2.50;;
52208;SDS011;38507;53.132;6.394;2023-07-13T06:52:57;14.57;;;2.85;;
52208;SDS011;38507;53.132;6.394;2023-07-13T06:55:24;10.65;;;2.42;;
52208;SDS011;38507;53.132;6.394;2023-07-13T06:57:50;13.52;;;1.95;;
52208;SDS011;38507;53.132;6.394;2023-07-13T07:00:16;10.98;;;2.10;;
52208;SDS011;38507;53.132;6.394;2023-07-13T07:02:42;13.25;;;2.50;;
52208;SDS011;38507;53.132;6.394;2023-07-13T07:05:07;11.32;;;2.42;;
52208;SDS011;38507;53.132;6.394;2023-07-13T07:07:33;14.85;;;3.58;;
52208;SDS011;38507;53.132;6.394;2023-07-13T07:09:59;11.70;;;2.17;;
52208;SDS011;38507;53.132;6.394;2023-07-13T07:12:24;9.52;;;2.75;;
52208;SDS011;38507;53.132;6.394;2023-07-13T07:14:50;13.10;;;2.85;;
52208;SDS011;38507;53.132;6.394;2023-07-13T07:17:16;11.32;;;2.00;;
52208;SDS011;38507;53.132;6.394;2023-07-13T07:19:41;6.75;;;1.80;;
52208;SDS011;38507;53.132;6.394;2023-07-13T07:22:07;9.30;;;2.13;;
52208;SDS011;38507;53.132;6.394;2023-07-13T07:24:32;5.93;;;1.92;;
52208;SDS011;38507;53.132;6.394;2023-07-13T07:26:58;11.90;;;2.20;;
52208;SDS011;38507;53.132;6.394;2023-07-13T07:29:24;9.13;;;1.73;;
52208;SDS011;38507;53.132;6.394;2023-07-13T07:31:51;9.77;;;1.80;;
52208;SDS011;38507;53.132;6.394;2023-07-13T07:34:17;8.52;;;1.60;;
52208;SDS011;38507;53.132;6.394;2023-07-13T07:36:43;7.40;;;1.83;;
52208;SDS011;38507;53.132;6.394;2023-07-13T07:39:09;7.45;;;1.73;;
52208;SDS011;38507;53.132;6.394;2023-07-13T07:41:34;5.60;;;1.70;;
52208;SDS011;38507;53.132;6.394;2023-07-13T07:44:00;5.47;;;1.48;;
52208;SDS011;38507;53.132;6.394;2023-07-13T07:46:26;9.07;;;1.70;;
52208;SDS011;38507;53.132;6.394;2023-07-13T07:48:51;11.27;;;2.00;;
52208;SDS011;38507;53.132;6.394;2023-07-13T07:51:17;5.20;;;1.45;;
52208;SDS011;38507;53.132;6.394;2023-07-13T07:53:42;6.45;;;1.23;;
52208;SDS011;38507;53.132;6.394;2023-07-13T07:56:08;4.07;;;1.40;;
52208;SDS011;38507;53.132;6.394;2023-07-13T07:58:35;3.38;;;1.10;;
52208;SDS011;38507;53.132;6.394;2023-07-13T08:01:04;4.03;;;1.30;;
52208;SDS011;38507;53.132;6.394;2023-07-13T08:03:31;3.80;;;1.55;;
52208;SDS011;38507;53.132;6.394;2023-07-13T08:05:57;4.32;;;1.40;;
52208;SDS011;38507;53.132;6.394;2023-07-13T08:08:23;7.50;;;2.00;;
52208;SDS011;38507;53.132;6.394;2023-07-13T08:10:49;8.38;;;1.80;;
52208;SDS011;38507;53.132;6.394;2023-07-13T08:13:15;9.20;;;2.00;;
52208;SDS011;38507;53.132;6.394;2023-07-13T08:15:40;7.95;;;1.80;;
52208;SDS011;38507;53.132;6.394;2023-07-13T08:18:06;12.02;;;2.42;;
52208;SDS011;38507;53.132;6.394;2023-07-13T08:20:36;6.68;;;1.83;;
52208;SDS011;38507;53.132;6.394;2023-07-13T08:23:04;12.23;;;1.80;;
52208;SDS011;38507;53.132;6.394;2023-07-13T08:25:31;7.25;;;1.80;;
52208;SDS011;38507;53.132;6.394;2023-07-13T08:27:57;4.40;;;1.30;;
52208;SDS011;38507;53.132;6.394;2023-07-13T08:30:22;8.27;;;1.38;;
52208;SDS011;38507;53.132;6.394;2023-07-13T08:32:48;6.65;;;1.60;;
52208;SDS011;38507;53.132;6.394;2023-07-13T08:35:14;6.63;;;1.63;;
52208;SDS011;38507;53.132;6.394;2023-07-13T08:37:41;6.13;;;1.30;;
52208;SDS011;38507;53.132;6.394;2023-07-13T08:40:08;6.47;;;1.42;;
52208;SDS011;38507;53.132;6.394;2023-07-13T08:45:13;6.55;;;1.30;;
52208;SDS011;38507;53.132;6.394;2023-07-13T08:47:44;6.63;;;1.10;;
52208;SDS011;38507;53.132;6.394;2023-07-13T08:50:18;7.50;;;1.38;;
52208;SDS011;38507;53.132;6.394;2023-07-13T08:52:47;6.00;;;1.45;;
52208;SDS011;38507;53.132;6.394;2023-07-13T08:58:12;4.38;;;1.48;;
52208;SDS011;38507;53.132;6.394;2023-07-13T09:00:48;8.15;;;1.80;;
52208;SDS011;38507;53.132;6.394;2023-07-13T09:03:44;6.70;;;1.23;;
52208;SDS011;38507;53.132;6.394;2023-07-13T09:06:20;5.10;;;1.40;;
52208;SDS011;38507;53.132;6.394;2023-07-13T09:08:55;7.28;;;1.52;;
52208;SDS011;38507;53.132;6.394;2023-07-13T09:14:33;7.60;;;1.73;;
52208;SDS011;38507;53.132;6.394;2023-07-13T09:17:05;6.32;;;1.63;;
52208;SDS011;38507;53.132;6.394;2023-07-13T09:19:41;5.57;;;1.55;;
52208;SDS011;38507;53.132;6.394;2023-07-13T09:22:10;7.35;;;1.77;;
52208;SDS011;38507;53.132;6.394;2023-07-13T09:24:46;4.78;;;1.50;;
52208;SDS011;38507;53.132;6.394;2023-07-13T09:27:34;5.60;;;1.70;;
52208;SDS011;38507;53.132;6.394;2023-07-13T09:32:43;5.40;;;1.65;;
52208;SDS011;38507;53.132;6.394;2023-07-13T09:35:15;6.35;;;1.63;;
52208;SDS011;38507;53.132;6.394;2023-07-13T09:37:44;8.27;;;1.65;;
52208;SDS011;38507;53.132;6.394;2023-07-13T09:40:17;8.30;;;2.17;;
52208;SDS011;38507;53.132;6.394;2023-07-13T09:42:53;7.07;;;1.88;;
52208;SDS011;38507;53.132;6.394;2023-07-13T09:45:29;9.07;;;1.95;;
52208;SDS011;38507;53.132;6.394;2023-07-13T09:48:15;6.97;;;1.58;;
52208;SDS011;38507;53.132;6.394;2023-07-13T09:50:42;5.20;;;1.30;;
52208;SDS011;38507;53.132;6.394;2023-07-13T09:53:15;5.18;;;1.42;;
52208;SDS011;38507;53.132;6.394;2023-07-13T09:55:44;4.60;;;1.58;;
52208;SDS011;38507;53.132;6.394;2023-07-13T10:00:58;7.10;;;1.20;;
52208;SDS011;38507;53.132;6.394;2023-07-13T10:03:32;7.25;;;1.50;;
52208;SDS011;38507;53.132;6.394;2023-07-13T10:06:15;7.18;;;1.20;;
52208;SDS011;38507;53.132;6.394;2023-07-13T10:08:43;5.93;;;1.23;;
52208;SDS011;38507;53.132;6.394;2023-07-13T10:11:12;3.03;;;0.90;;
52208;SDS011;38507;53.132;6.394;2023-07-13T10:13:46;6.82;;;1.42;;
52208;SDS011;38507;53.132;6.394;2023-07-13T10:16:25;4.20;;;1.27;;
52208;SDS011;38507;53.132;6.394;2023-07-13T10:18:56;3.17;;;1.08;;
52208;SDS011;38507;53.132;6.394;2023-07-13T10:21:26;3.65;;;1.08;;
52208;SDS011;38507;53.132;6.394;2023-07-13T10:23:59;4.47;;;0.98;;
52208;SDS011;38507;53.132;6.394;2023-07-13T10:26:32;5.18;;;1.02;;
52208;SDS011;38507;53.132;6.394;2023-07-13T10:29:04;6.22;;;1.30;;
52208;SDS011;38507;53.132;6.394;2023-07-13T10:31:34;5.68;;;1.00;;
52208;SDS011;38507;53.132;6.394;2023-07-13T10:34:01;3.78;;;0.90;;
52208;SDS011;38507;53.132;6.394;2023-07-13T10:36:39;4.30;;;0.80;;
52208;SDS011;38507;53.132;6.394;2023-07-13T10:39:09;7.22;;;0.85;;
52208;SDS011;38507;53.132;6.394;2023-07-13T10:41:59;5.60;;;1.17;;
52208;SDS011;38507;53.132;6.394;2023-07-13T10:44:31;5.18;;;1.00;;
52208;SDS011;38507;53.132;6.394;2023-07-13T10:46:58;6.10;;;1.08;;
52208;SDS011;38507;53.132;6.394;2023-07-13T10:49:31;2.70;;;0.75;;
52208;SDS011;38507;53.132;6.394;2023-07-13T10:51:58;3.28;;;0.80;;
52208;SDS011;38507;53.132;6.394;2023-07-13T10:54:30;3.53;;;0.80;;
52208;SDS011;38507;53.132;6.394;2023-07-13T11:00:17;3.08;;;0.60;;
52208;SDS011;38507;53.132;6.394;2023-07-13T11:02:42;3.83;;;0.70;;
52208;SDS011;38507;53.132;6.394;2023-07-13T11:07:55;4.57;;;0.90;;
52208;SDS011;38507;53.132;6.394;2023-07-13T11:10:52;6.13;;;1.73;;
52208;SDS011;38507;53.132;6.394;2023-07-13T11:18:49;7.95;;;1.35;;
52208;SDS011;38507;53.132;6.394;2023-07-13T11:21:28;3.58;;;1.02;;
52208;SDS011;38507;53.132;6.394;2023-07-13T11:31:56;6.00;;;1.00;;
52208;SDS011;38507;53.132;6.394;2023-07-13T11:34:26;10.07;;;1.30;;
52208;SDS011;38507;53.132;6.394;2023-07-13T11:36:55;5.45;;;1.10;;
52208;SDS011;38507;53.132;6.394;2023-07-13T11:41:59;5.32;;;1.10;;
52208;SDS011;38507;53.132;6.394;2023-07-13T11:44:28;2.08;;;0.60;;
52208;SDS011;38507;53.132;6.394;2023-07-13T11:46:56;4.50;;;1.15;;
52208;SDS011;38507;53.132;6.394;2023-07-13T11:49:29;5.43;;;0.77;;
52208;SDS011;38507;53.132;6.394;2023-07-13T11:51:57;4.63;;;1.08;;
52208;SDS011;38507;53.132;6.394;2023-07-13T11:54:25;5.53;;;1.00;;
52208;SDS011;38507;53.132;6.394;2023-07-13T11:56:57;7.20;;;1.20;;
52208;SDS011;38507;53.132;6.394;2023-07-13T11:59:26;6.43;;;1.40;;
52208;SDS011;38507;53.132;6.394;2023-07-13T12:01:55;5.13;;;1.20;;
52208;SDS011;38507;53.132;6.394;2023-07-13T12:04:25;4.82;;;1.25;;
52208;SDS011;38507;53.132;6.394;2023-07-13T12:06:57;2.80;;;0.90;;
52208;SDS011;38507;53.132;6.394;2023-07-13T12:09:28;5.47;;;1.30;;
52208;SDS011;38507;53.132;6.394;2023-07-13T12:11:56;6.97;;;1.67;;
52208;SDS011;38507;53.132;6.394;2023-07-13T12:14:25;6.78;;;1.25;;
52208;SDS011;38507;53.132;6.394;2023-07-13T12:16:51;5.45;;;0.90;;
52208;SDS011;38507;53.132;6.394;2023-07-13T12:19:19;4.60;;;0.82;;
52208;SDS011;38507;53.132;6.394;2023-07-13T12:21:47;3.60;;;0.90;;
52208;SDS011;38507;53.132;6.394;2023-07-13T12:24:15;5.00;;;1.25;;
52208;SDS011;38507;53.132;6.394;2023-07-13T12:26:43;7.82;;;1.52;;
52208;SDS011;38507;53.132;6.394;2023-07-13T12:29:16;3.47;;;0.82;;
52208;SDS011;38507;53.132;6.394;2023-07-13T12:31:43;3.97;;;0.80;;
52208;SDS011;38507;53.132;6.394;2023-07-13T12:34:14;5.60;;;1.60;;
52208;SDS011;38507;53.132;6.394;2023-07-13T12:41:50;6.88;;;1.00;;
52208;SDS011;38507;53.132;6.394;2023-07-13T12:44:20;3.03;;;0.70;;
52208;SDS011;38507;53.132;6.394;2023-07-13T12:46:57;5.68;;;1.13;;
52208;SDS011;38507;53.132;6.394;2023-07-13T12:49:30;8.70;;;1.20;;
52208;SDS011;38507;53.132;6.394;2023-07-13T12:52:00;4.43;;;1.08;;
52208;SDS011;38507;53.132;6.394;2023-07-13T12:54:29;8.50;;;1.40;;
52208;SDS011;38507;53.132;6.394;2023-07-13T12:56:55;5.10;;;1.10;;
52208;SDS011;38507;53.132;6.394;2023-07-13T12:59:24;3.90;;;0.93;;
52208;SDS011;38507;53.132;6.394;2023-07-13T13:01:54;4.15;;;0.70;;
52208;SDS011;38507;53.132;6.394;2023-07-13T13:04:20;5.82;;;1.02;;
52208;SDS011;38507;53.132;6.394;2023-07-13T13:06:46;2.60;;;0.80;;
52208;SDS011;38507;53.132;6.394;2023-07-13T13:09:14;7.22;;;1.48;;
52208;SDS011;38507;53.132;6.394;2023-07-13T13:11:41;4.00;;;1.00;;
52208;SDS011;38507;53.132;6.394;2023-07-13T13:14:07;5.25;;;0.93;;
52208;SDS011;38507;53.132;6.394;2023-07-13T13:16:43;6.75;;;1.10;;
52208;SDS011;38507;53.132;6.394;2023-07-13T13:19:13;3.17;;;1.10;;
52208;SDS011;38507;53.132;6.394;2023-07-13T13:21:39;4.00;;;1.08;;
52208;SDS011;38507;53.132;6.394;2023-07-13T13:24:15;4.55;;;1.13;;
52208;SDS011;38507;53.132;6.394;2023-07-13T13:26:43;5.80;;;1.15;;
52208;SDS011;38507;53.132;6.394;2023-07-13T13:29:14;3.75;;;0.80;;
52208;SDS011;38507;53.132;6.394;2023-07-13T13:31:42;5.03;;;1.80;;
52208;SDS011;38507;53.132;6.394;2023-07-13T13:34:13;9.43;;;1.05;;
52208;SDS011;38507;53.132;6.394;2023-07-13T13:36:41;7.72;;;1.05;;
52208;SDS011;38507;53.132;6.394;2023-07-13T13:39:20;7.82;;;1.20;;
52208;SDS011;38507;53.132;6.394;2023-07-13T13:41:53;3.28;;;1.17;;
52208;SDS011;38507;53.132;6.394;2023-07-13T13:44:19;7.18;;;1.10;;
52208;SDS011;38507;53.132;6.394;2023-07-13T13:46:46;3.28;;;0.98;;
52208;SDS011;38507;53.132;6.394;2023-07-13T13:49:17;3.97;;;1.05;;
52208;SDS011;38507;53.132;6.394;2023-07-13T13:51:46;5.78;;;1.10;;
52208;SDS011;38507;53.132;6.394;2023-07-13T13:54:13;6.97;;;1.33;;
52208;SDS011;38507;53.132;6.394;2023-07-13T13:56:44;5.30;;;1.17;;
52208;SDS011;38507;53.132;6.394;2023-07-13T13:59:12;4.90;;;1.00;;
52208;SDS011;38507;53.132;6.394;2023-07-13T14:01:38;4.07;;;1.25;;
52208;SDS011;38507;53.132;6.394;2023-07-13T14:04:05;6.43;;;1.05;;
52208;SDS011;38507;53.132;6.394;2023-07-13T14:06:32;7.13;;;1.15;;
52208;SDS011;38507;53.132;6.394;2023-07-13T14:08:58;5.28;;;1.17;;
52208;SDS011;38507;53.132;6.394;2023-07-13T14:11:25;6.88;;;1.20;;
52208;SDS011;38507;53.132;6.394;2023-07-13T14:13:52;6.28;;;1.08;;
52208;SDS011;38507;53.132;6.394;2023-07-13T14:16:21;4.20;;;0.98;;
52208;SDS011;38507;53.132;6.394;2023-07-13T14:18:48;7.78;;;1.35;;
52208;SDS011;38507;53.132;6.394;2023-07-13T14:21:18;3.85;;;1.08;;
52208;SDS011;38507;53.132;6.394;2023-07-13T14:23:46;3.67;;;1.10;;
52208;SDS011;38507;53.132;6.394;2023-07-13T14:26:14;4.18;;;1.02;;
52208;SDS011;38507;53.132;6.394;2023-07-13T14:28:42;4.63;;;1.20;;
52208;SDS011;38507;53.132;6.394;2023-07-13T14:31:16;5.80;;;1.50;;
52208;SDS011;38507;53.132;6.394;2023-07-13T14:33:42;3.53;;;1.10;;
52208;SDS011;38507;53.132;6.394;2023-07-13T14:36:15;6.05;;;1.38;;
52208;SDS011;38507;53.132;6.394;2023-07-13T14:38:48;5.50;;;1.02;;
52208;SDS011;38507;53.132;6.394;2023-07-13T14:41:13;8.23;;;1.40;;
52208;SDS011;38507;53.132;6.394;2023-07-13T14:43:39;8.02;;;1.52;;
52208;SDS011;38507;53.132;6.394;2023-07-13T14:46:05;9.32;;;1.40;;
52208;SDS011;38507;53.132;6.394;2023-07-13T14:48:32;6.60;;;1.52;;
52208;SDS011;38507;53.132;6.394;2023-07-13T14:50:58;5.10;;;1.30;;
52208;SDS011;38507;53.132;6.394;2023-07-13T14:53:25;6.35;;;0.90;;
52208;SDS011;38507;53.132;6.394;2023-07-13T14:55:54;5.13;;;0.82;;
52208;SDS011;38507;53.132;6.394;2023-07-13T14:58:20;6.65;;;1.38;;
52208;SDS011;38507;53.132;6.394;2023-07-13T15:00:49;6.70;;;1.42;;
52208;SDS011;38507;53.132;6.394;2023-07-13T15:03:22;4.75;;;1.20;;
52208;SDS011;38507;53.132;6.394;2023-07-13T15:05:50;10.70;;;2.05;;
52208;SDS011;38507;53.132;6.394;2023-07-13T15:08:18;6.65;;;1.10;;
52208;SDS011;38507;53.132;6.394;2023-07-13T15:10:44;5.40;;;1.23;;
52208;SDS011;38507;53.132;6.394;2023-07-13T15:15:40;4.85;;;1.17;;
52208;SDS011;38507;53.132;6.394;2023-07-13T15:18:12;5.32;;;1.40;;
52208;SDS011;38507;53.132;6.394;2023-07-13T15:20:42;8.93;;;1.30;;
52208;SDS011;38507;53.132;6.394;2023-07-13T15:23:10;7.03;;;1.42;;
52208;SDS011;38507;53.132;6.394;2023-07-13T15:25:37;5.30;;;1.25;;
52208;SDS011;38507;53.132;6.394;2023-07-13T15:28:03;5.28;;;1.25;;
52208;SDS011;38507;53.132;6.394;2023-07-13T15:30:30;4.43;;;1.20;;